createdAt,value
2023-03-22T00:00:35.424Z,99621.16
2023-03-22T00:01:40.458Z,99614.09
2023-03-22T00:02:43.098Z,99619.48
2023-03-22T00:03:46.533Z,99625.56
2023-03-22T00:04:49.321Z,99622.03
2023-03-22T00:05:56.615Z,99619.34
2023-03-22T00:07:01.142Z,99617.63
2023-03-22T00:08:05.679Z,99620.32
2023-03-22T00:09:09.027Z,99617.63
2023-03-22T00:10:13.784Z,99615.08
2023-03-22T00:11:17.333Z,99621.30
2023-03-22T00:12:20.786Z,99624.86
2023-03-22T00:13:24.721Z,99626.55
2023-03-22T00:14:27.923Z,99624.86
2023-03-22T00:15:30.882Z,99629.38
2023-03-22T00:16:35.130Z,99627.55
2023-03-22T00:17:38.074Z,99633.78
2023-03-22T00:18:40.710Z,99634.63
2023-03-22T00:19:44.825Z,99624.13
2023-03-22T00:20:49.238Z,99624.13
2023-03-22T00:21:51.629Z,99631.79
2023-03-22T00:22:54.793Z,99632.52
2023-03-22T00:23:58.135Z,99629.83
2023-03-22T00:25:00.702Z,99631.69
2023-03-22T00:26:04.051Z,99635.22
2023-03-22T00:27:07.560Z,99631.69
2023-03-22T00:28:10.826Z,99634.38
2023-03-22T00:29:15.339Z,99632.52
2023-03-22T00:30:19.688Z,99629.83
2023-03-22T00:31:23.434Z,99631.55
2023-03-22T00:32:26.979Z,99630.67
2023-03-22T00:33:30.223Z,99631.69
2023-03-22T00:34:33.706Z,99631.69
2023-03-22T00:35:38.731Z,99628.13
2023-03-22T00:36:42.779Z,99629.83
2023-03-22T00:37:46.166Z,99634.38
2023-03-22T00:38:51.819Z,99632.52
2023-03-22T00:39:56.823Z,99628.99
2023-03-22T00:41:11.389Z,99630.67
2023-03-22T00:42:14.433Z,99620.91
2023-03-22T00:43:17.010Z,99628.13
2023-03-22T00:44:20.147Z,99625.42
2023-03-22T00:45:23.694Z,99631.69
2023-03-22T00:46:26.822Z,99625.42
2023-03-22T00:47:29.752Z,99632.66
2023-03-22T00:48:32.747Z,99630.81
2023-03-22T00:49:37.399Z,99628.13
2023-03-22T00:50:41.116Z,99635.22
2023-03-22T00:51:44.256Z,99630.81
2023-03-22T00:52:47.049Z,99634.38
2023-03-22T00:53:51.643Z,99622.73
2023-03-22T00:54:54.906Z,99629.97
2023-03-22T00:55:58.435Z,99632.66
2023-03-22T00:57:01.843Z,99631.79
2023-03-22T00:58:05.506Z,99633.64
2023-03-22T01:00:25.875Z,99629.03
2023-03-22T01:01:29.008Z,99632.80
2023-03-22T01:02:33.483Z,99630.95
2023-03-22T01:03:38.510Z,99634.63
2023-03-22T01:04:45.853Z,99634.63
2023-03-22T01:05:49.968Z,99630.11
2023-03-22T01:08:12.381Z,99643.47
2023-03-22T01:09:16.440Z,99629.23
2023-03-22T01:10:20.395Z,99629.23
2023-03-22T01:11:24.487Z,99633.78
2023-03-22T01:12:26.999Z,99630.11
2023-03-22T01:13:29.871Z,99631.93
2023-03-22T01:14:32.452Z,99629.23
2023-03-22T01:15:35.611Z,99629.10
2023-03-22T01:16:38.457Z,99613.50
2023-03-22T01:17:41.728Z,99613.50
2023-03-22T01:18:44.727Z,99623.72
2023-03-22T01:19:47.304Z,99632.52
2023-03-22T01:20:51.047Z,99634.38
2023-03-22T01:21:54.906Z,99632.52
2023-03-22T01:22:59.023Z,99633.50
2023-03-22T01:24:02.764Z,99639.03
2023-03-22T01:25:06.326Z,99634.48
2023-03-22T01:26:10.526Z,99631.93
2023-03-22T01:27:13.780Z,99630.11
2023-03-22T01:28:16.431Z,99634.63
2023-03-22T01:29:20.056Z,99628.26
2023-03-22T01:30:23.459Z,99625.56
2023-03-22T01:31:26.734Z,99628.26
2023-03-22T01:32:30.066Z,99632.80
2023-03-22T01:33:32.792Z,99632.80
2023-03-22T01:34:35.257Z,99639.03
2023-03-22T01:35:39.153Z,99633.64
2023-03-22T01:36:42.979Z,99634.63
2023-03-22T01:37:45.810Z,99640.00
2023-03-22T01:38:49.220Z,99637.31
2023-03-22T01:39:53.007Z,99638.19
2023-03-22T01:40:56.692Z,99642.70
2023-03-22T01:42:03.047Z,99642.70
2023-03-22T01:44:22.968Z,99649.00
2023-03-22T01:45:38.384Z,99646.41
2023-03-22T01:46:42.059Z,99649.20
2023-03-22T01:47:55.790Z,99650.07
2023-03-22T01:49:07.351Z,99654.48
2023-03-22T01:50:10.531Z,99655.45
2023-03-22T01:51:18.498Z,99655.45
2023-03-22T01:53:43.655Z,99650.11
2023-03-22T01:54:47.831Z,99661.82
2023-03-22T01:55:52.806Z,99657.41
2023-03-22T01:56:57.485Z,99659.27
2023-03-22T01:58:03.032Z,99667.34
2023-03-22T01:59:10.993Z,99663.67
2023-03-22T02:00:32.446Z,99660.11
2023-03-22T02:01:37.385Z,99663.67
2023-03-22T02:02:43.131Z,99666.36
2023-03-22T02:05:19.027Z,99658.33
2023-03-22T02:06:22.979Z,99662.94
2023-03-22T02:07:27.283Z,99660.38
2023-03-22T02:08:33.020Z,99672.13
2023-03-22T02:09:39.279Z,99665.77
2023-03-22T02:10:42.761Z,99671.15
2023-03-22T02:13:19.897Z,99659.45
2023-03-22T02:14:49.122Z,99665.77
2023-03-22T02:18:05.703Z,99668.64
2023-03-22T02:19:31.518Z,99667.75
2023-03-22T02:22:52.916Z,99669.05
2023-03-22T02:24:15.808Z,99669.98
2023-03-22T02:25:55.568Z,99665.72
2023-03-22T02:28:31.447Z,99669.58
2023-03-22T02:31:33.764Z,99677.08
2023-03-22T02:32:52.305Z,99672.63
2023-03-22T02:34:13.658Z,99676.30
2023-03-22T02:35:23.355Z,99677.16
2023-03-22T02:36:47.856Z,99671.78
2023-03-22T02:38:11.754Z,99676.30
2023-03-22T02:40:40.297Z,99671.10
2023-03-22T02:41:53.061Z,99674.72
2023-03-22T02:43:11.079Z,99672.02
2023-03-22T02:44:30.419Z,99672.90
2023-03-22T02:45:52.600Z,99677.27
2023-03-22T02:47:21.895Z,99678.14
2023-03-22T02:48:31.057Z,99675.45
2023-03-22T02:51:05.233Z,99679.04
2023-03-22T02:52:20.880Z,99683.53
2023-03-22T02:53:40.622Z,99676.43
2023-03-22T02:56:21.121Z,99686.98
2023-03-22T02:57:33.798Z,99694.16
2023-03-22T02:58:52.670Z,99686.92
2023-03-22T02:59:56.698Z,99692.44
2023-03-22T03:02:18.089Z,99693.09
2023-03-22T03:03:20.528Z,99684.09
2023-03-22T03:04:32.468Z,99691.19
2023-03-22T03:05:36.051Z,99688.50
2023-03-22T03:06:43.188Z,99695.46
2023-03-22T03:09:21.844Z,99690.73
2023-03-22T03:10:24.984Z,99693.38
2023-03-22T03:11:27.569Z,99697.88
2023-03-22T03:12:30.539Z,99701.45
2023-03-22T03:13:33.183Z,99701.45
2023-03-22T03:14:35.963Z,99702.15
2023-03-22T03:15:41.838Z,99704.84
2023-03-22T03:16:46.072Z,99703.86
2023-03-22T03:18:15.367Z,99702.98
2023-03-22T03:19:23.515Z,99715.47
2023-03-22T03:20:34.502Z,99713.66
2023-03-22T03:21:55.189Z,99713.76
2023-03-22T03:23:28.040Z,99712.78
2023-03-22T03:24:46.936Z,99720.86
2023-03-22T03:26:03.472Z,99723.55
2023-03-22T03:28:46.073Z,99715.66
2023-03-22T03:30:01.091Z,99717.59
2023-03-22T03:31:22.073Z,99719.41
2023-03-22T03:32:34.695Z,99722.11
2023-03-22T03:33:41.812Z,99724.80
2023-03-22T03:36:10.567Z,99726.70
2023-03-22T03:37:21.690Z,99727.63
2023-03-22T03:38:29.613Z,99734.86
2023-03-22T03:39:36.095Z,99727.63
2023-03-22T03:41:54.495Z,99732.80
2023-03-22T03:42:57.297Z,99726.52
2023-03-22T03:44:00.346Z,99729.20
2023-03-22T03:45:03.375Z,99736.30
2023-03-22T03:46:07.000Z,99727.22
2023-03-22T03:47:10.152Z,99731.63
2023-03-22T03:49:51.446Z,99728.61
2023-03-22T03:50:54.274Z,99733.06
2023-03-22T03:51:58.011Z,99730.38
2023-03-22T03:53:01.070Z,99733.80
2023-03-22T03:54:04.064Z,99730.10
2023-03-22T03:55:07.764Z,99728.28
2023-03-22T03:56:10.957Z,99721.05
2023-03-22T03:57:16.138Z,99728.98
2023-03-22T03:58:18.942Z,99724.48
2023-03-22T03:59:22.514Z,99722.62
2023-03-22T04:00:26.501Z,99729.72
2023-03-22T04:01:51.171Z,99726.16
2023-03-22T04:02:55.765Z,99732.42
2023-03-22T04:04:00.361Z,99730.56
2023-03-22T04:05:11.580Z,99727.88
2023-03-22T04:06:14.199Z,99721.65
2023-03-22T04:07:19.291Z,99736.09
2023-03-22T04:08:21.834Z,99726.16
2023-03-22T04:09:26.834Z,99723.47
2023-03-22T04:10:31.735Z,99731.55
2023-03-22T04:11:34.483Z,99734.09
2023-03-22T04:12:38.050Z,99727.03
2023-03-22T04:13:45.187Z,99738.50
2023-03-22T04:14:52.042Z,99728.72
2023-03-22T04:15:57.794Z,99739.48
2023-03-22T04:17:00.877Z,99732.14
2023-03-22T04:18:06.493Z,99732.98
2023-03-22T04:19:10.098Z,99729.45
2023-03-22T04:20:13.725Z,99726.76
2023-03-22T04:21:16.250Z,99739.24
2023-03-22T04:22:26.716Z,99731.17
2023-03-22T04:23:32.477Z,99736.55
2023-03-22T04:24:37.367Z,99733.86
2023-03-22T04:25:41.577Z,99728.47
2023-03-22T04:26:45.839Z,99742.78
2023-03-22T04:28:03.677Z,99738.37
2023-03-22T04:29:06.471Z,99732.14
2023-03-22T04:30:12.202Z,99749.14
2023-03-22T04:31:33.542Z,99742.07
2023-03-22T04:32:38.331Z,99746.45
2023-03-22T04:33:45.329Z,99743.19
2023-03-22T04:34:50.849Z,99742.31
2023-03-22T04:35:57.631Z,99739.63
2023-03-22T04:37:02.560Z,99742.31
2023-03-22T04:38:17.448Z,99745.00
2023-03-22T04:39:21.222Z,99748.57
2023-03-22T04:40:27.742Z,99743.19
2023-03-22T04:41:38.433Z,99748.57
2023-03-22T04:42:41.638Z,99744.03
2023-03-22T04:43:46.528Z,99744.03
2023-03-22T04:44:50.626Z,99750.25
2023-03-22T04:45:54.107Z,99751.97
2023-03-22T04:46:58.682Z,99751.97
2023-03-22T04:48:01.897Z,99760.05
2023-03-22T04:49:05.348Z,99760.05
2023-03-22T04:50:10.476Z,99760.92
2023-03-22T04:51:16.012Z,99760.92
2023-03-22T04:52:20.704Z,99758.23
2023-03-22T04:53:26.903Z,99762.60
2023-03-22T04:54:31.687Z,99763.61
2023-03-22T04:55:34.799Z,99765.30
2023-03-22T04:56:37.545Z,99762.60
2023-03-22T04:57:40.937Z,99766.17
2023-03-22T04:58:43.805Z,99762.47
2023-03-22T04:59:47.051Z,99761.62
2023-03-22T05:00:52.278Z,99767.85
2023-03-22T05:01:56.976Z,99764.31
2023-03-22T05:03:03.334Z,99769.56
2023-03-22T05:04:11.237Z,99768.73
2023-03-22T05:05:13.850Z,99779.36
2023-03-22T05:06:17.648Z,99777.78
2023-03-22T05:07:34.300Z,99775.83
2023-03-22T05:08:37.534Z,99780.34
2023-03-22T05:09:40.866Z,99774.95
2023-03-22T05:10:44.749Z,99775.83
2023-03-22T05:11:47.264Z,99784.88
2023-03-22T05:13:00.573Z,99775.09
2023-03-22T05:14:05.154Z,99773.23
2023-03-22T05:15:08.836Z,99784.88
2023-03-22T05:16:15.444Z,99779.49
2023-03-22T05:17:21.096Z,99781.31
2023-03-22T05:18:25.823Z,99784.00
2023-03-22T05:19:29.728Z,99783.16
2023-03-22T05:20:32.810Z,99782.33
2023-03-22T05:21:46.982Z,99783.16
2023-03-22T05:22:51.028Z,99786.70
2023-03-22T05:23:58.086Z,99784.00
2023-03-22T05:25:00.853Z,99785.86
2023-03-22T05:26:03.646Z,99784.88
2023-03-22T05:27:07.901Z,99787.58
2023-03-22T05:28:10.516Z,99782.19
2023-03-22T05:29:23.957Z,99786.59
2023-03-22T05:30:37.887Z,99791.98
2023-03-22T05:31:42.655Z,99784.88
2023-03-22T05:32:47.917Z,99792.82
2023-03-22T05:33:51.366Z,99790.27
2023-03-22T05:34:56.079Z,99786.70
2023-03-22T05:36:00.733Z,99789.28
2023-03-22T05:37:04.718Z,99790.27
2023-03-22T05:38:23.481Z,99794.67
2023-03-22T05:39:27.941Z,99794.78
2023-03-22T05:40:31.240Z,99793.80
2023-03-22T05:41:36.510Z,99793.80
2023-03-22T05:42:38.890Z,99795.52
2023-03-22T05:43:43.797Z,99793.80
2023-03-22T05:44:47.333Z,99794.67
2023-03-22T05:45:50.480Z,99795.52
2023-03-22T05:47:06.606Z,99788.41
2023-03-22T05:48:17.835Z,99791.98
2023-03-22T05:49:21.806Z,99788.41
2023-03-22T05:50:26.538Z,99793.80
2023-03-22T05:51:31.879Z,99794.67
2023-03-22T05:52:34.640Z,99794.67
2023-03-22T05:53:42.135Z,99794.67
2023-03-22T05:54:46.895Z,99799.05
2023-03-22T05:55:50.079Z,99794.54
2023-03-22T05:56:55.871Z,99793.66
2023-03-22T05:58:01.216Z,99803.59
2023-03-22T05:59:04.289Z,99797.23
2023-03-22T06:00:15.641Z,99798.91
2023-03-22T06:01:21.569Z,99802.48
2023-03-22T06:02:25.390Z,99800.63
2023-03-22T06:03:29.567Z,99800.49
2023-03-22T06:04:34.137Z,99806.86
2023-03-22T06:05:39.484Z,99806.86
2023-03-22T06:06:43.381Z,99813.95
2023-03-22T06:07:47.602Z,99811.27
2023-03-22T06:08:51.785Z,99816.66
2023-03-22T06:09:55.178Z,99824.59
2023-03-22T06:10:58.890Z,99822.91
2023-03-22T06:12:02.299Z,99818.37
2023-03-22T06:13:05.822Z,99825.60
2023-03-22T06:14:08.882Z,99821.91
2023-03-22T06:15:13.888Z,99824.59
2023-03-22T06:16:21.659Z,99828.30
2023-03-22T06:17:25.029Z,99829.14
2023-03-22T06:18:28.157Z,99832.67
2023-03-22T06:19:33.209Z,99833.55
2023-03-22T06:20:38.630Z,99830.86
2023-03-22T06:21:44.524Z,99832.80
2023-03-22T06:22:48.358Z,99840.75
2023-03-22T06:23:52.626Z,99838.06
2023-03-22T06:24:56.892Z,99834.52
2023-03-22T06:26:01.410Z,99832.67
2023-03-22T06:27:04.975Z,99834.52
2023-03-22T06:28:20.328Z,99833.68
2023-03-22T06:29:27.699Z,99831.83
2023-03-22T06:30:32.277Z,99830.98
2023-03-22T06:31:43.201Z,99837.22
2023-03-22T06:32:46.361Z,99833.68
2023-03-22T06:33:49.288Z,99835.37
2023-03-22T06:34:56.600Z,99830.86
2023-03-22T06:36:00.812Z,99835.37
2023-03-22T06:37:08.065Z,99836.24
2023-03-22T06:38:13.446Z,99839.77
2023-03-22T06:39:16.215Z,99842.47
2023-03-22T06:40:20.579Z,99839.77
2023-03-22T06:41:23.366Z,99849.60
2023-03-22T06:42:30.274Z,99846.91
2023-03-22T06:43:38.156Z,99836.14
2023-03-22T06:44:45.470Z,99840.65
2023-03-22T06:45:52.720Z,99840.65
2023-03-22T06:46:57.303Z,99831.59
2023-03-22T06:48:18.637Z,99837.95
2023-03-22T06:49:35.437Z,99829.88
2023-03-22T06:50:38.820Z,99840.65
2023-03-22T06:51:43.514Z,99837.08
2023-03-22T06:52:46.074Z,99835.37
2023-03-22T06:53:48.650Z,99839.91
2023-03-22T06:54:51.478Z,99847.98
2023-03-22T06:55:55.581Z,99847.02
2023-03-22T06:56:59.841Z,99845.30
2023-03-22T06:58:02.890Z,99843.45
2023-03-22T06:59:06.271Z,99842.60
2023-03-22T07:00:11.292Z,99839.77
2023-03-22T07:01:15.372Z,99838.94
2023-03-22T07:02:19.091Z,99840.65
2023-03-22T07:03:24.767Z,99844.22
2023-03-22T07:04:29.681Z,99830.75
2023-03-22T07:05:34.153Z,99833.45
2023-03-22T07:06:37.585Z,99838.83
2023-03-22T07:07:41.281Z,99836.98
2023-03-22T07:08:44.231Z,99839.67
2023-03-22T07:09:48.031Z,99837.86
2023-03-22T07:10:52.587Z,99836.00
2023-03-22T07:11:57.488Z,99836.00
2023-03-22T07:13:02.213Z,99841.25
2023-03-22T07:14:06.314Z,99844.79
2023-03-22T07:15:18.189Z,99839.41
2023-03-22T07:16:22.659Z,99840.28
2023-03-22T07:17:31.270Z,99843.81
2023-03-22T07:18:35.823Z,99849.20
2023-03-22T07:19:40.441Z,99846.50
2023-03-22T07:20:43.141Z,99849.20
2023-03-22T07:21:46.691Z,99852.87
2023-03-22T07:22:51.010Z,99851.05
2023-03-22T07:23:55.305Z,99848.48
2023-03-22T07:25:01.846Z,99857.28
2023-03-22T07:26:06.863Z,99856.44
2023-03-22T07:27:12.214Z,99858.99
2023-03-22T07:28:16.327Z,99857.28
2023-03-22T07:29:19.134Z,99861.69
2023-03-22T07:30:23.098Z,99861.69
2023-03-22T07:31:26.562Z,99850.07
2023-03-22T07:32:31.441Z,99858.99
2023-03-22T07:33:39.499Z,99858.99
2023-03-22T07:34:42.651Z,99859.97
2023-03-22T07:35:50.276Z,99860.95
2023-03-22T07:36:56.241Z,99853.61
2023-03-22T07:38:00.406Z,99855.33
2023-03-22T07:39:06.530Z,99853.61
2023-03-22T07:40:13.004Z,99858.02
2023-03-22T07:41:17.274Z,99855.33
2023-03-22T07:42:27.954Z,99848.09
2023-03-22T07:44:51.755Z,99849.86
2023-03-22T07:45:54.420Z,99846.23
2023-03-22T07:47:20.292Z,99844.55
2023-03-22T07:50:57.228Z,99848.22
2023-03-22T07:52:01.231Z,99852.77
2023-03-22T07:53:04.196Z,99850.91
2023-03-22T07:54:08.054Z,99852.62
2023-03-22T07:55:11.765Z,99853.47
2023-03-22T07:56:14.832Z,99853.47
2023-03-22T07:57:17.694Z,99851.63
2023-03-22T07:58:22.021Z,99854.31
2023-03-22T07:59:24.968Z,99854.31
2023-03-22T08:00:27.888Z,99856.03
2023-03-22T08:01:32.310Z,99849.80
2023-03-22T08:02:39.089Z,99846.23
2023-03-22T08:03:42.233Z,99851.48
2023-03-22T08:04:50.270Z,99851.48
2023-03-22T08:05:53.576Z,99854.18
2023-03-22T08:06:58.094Z,99856.03
2023-03-22T08:08:01.594Z,99853.34
2023-03-22T08:09:04.902Z,99850.64
2023-03-22T08:10:09.214Z,99851.48
2023-03-22T08:11:13.017Z,99847.95
2023-03-22T08:12:17.204Z,99854.18
2023-03-22T08:13:21.448Z,99859.56
2023-03-22T08:14:35.446Z,99856.03
2023-03-22T08:15:28.960Z,99852.62
2023-03-22T08:16:32.687Z,99854.45
2023-03-22T08:17:36.067Z,99854.72
2023-03-22T08:18:40.515Z,99856.70
2023-03-22T08:19:43.405Z,99854.98
2023-03-22T08:22:06.856Z,99855.56
2023-03-22T08:23:38.558Z,99857.84
2023-03-22T08:24:45.912Z,99858.22
2023-03-22T08:25:50.889Z,99859.19
2023-03-22T08:26:54.504Z,99862.89
2023-03-22T08:27:59.110Z,99860.20
2023-03-22T08:29:02.827Z,99859.33
2023-03-22T08:30:08.846Z,99857.64
2023-03-22T08:31:15.252Z,99857.64
2023-03-22T08:32:18.911Z,99856.05
2023-03-22T08:33:23.406Z,99843.36
2023-03-22T08:34:26.800Z,99843.36
2023-03-22T08:35:44.345Z,99859.25
2023-03-22T08:36:47.641Z,99853.16
2023-03-22T08:37:59.013Z,99861.23
2023-03-22T08:39:04.274Z,99853.28
2023-03-22T08:40:12.724Z,99866.27
2023-03-22T08:41:20.331Z,99862.13
2023-03-22T08:42:22.805Z,99870.33
2023-03-22T08:43:25.886Z,99861.41
2023-03-22T08:44:29.014Z,99867.90
2023-03-22T08:45:32.163Z,99863.48
2023-03-22T08:46:36.995Z,99862.78
2023-03-22T08:48:54.895Z,99865.55
2023-03-22T08:49:59.962Z,99859.61
2023-03-22T08:51:07.113Z,99858.73
2023-03-22T08:52:12.107Z,99857.89
2023-03-22T08:53:17.206Z,99860.58
2023-03-22T08:54:22.280Z,99859.61
2023-03-22T08:55:42.132Z,99856.91
2023-03-22T08:56:46.013Z,99861.32
2023-03-22T08:58:09.624Z,99853.34
2023-03-22T08:59:31.890Z,99857.05
2023-03-22T09:00:51.682Z,99864.37
2023-03-22T09:02:00.470Z,99859.84
2023-03-22T09:03:03.289Z,99855.82
2023-03-22T09:04:07.415Z,99858.64
2023-03-22T09:05:15.093Z,99856.95
2023-03-22T09:06:19.665Z,99860.48
2023-03-22T09:07:23.742Z,99857.66
2023-03-22T09:08:29.164Z,99859.52
2023-03-22T09:09:34.018Z,99855.82
2023-03-22T09:10:39.784Z,99853.12
2023-03-22T09:11:42.687Z,99854.13
2023-03-22T09:12:48.209Z,99852.28
2023-03-22T09:13:51.535Z,99857.66
2023-03-22T09:14:56.926Z,99852.41
2023-03-22T09:16:01.455Z,99847.17
2023-03-22T09:17:05.926Z,99853.65
2023-03-22T09:18:08.959Z,99859.03
2023-03-22T09:19:12.415Z,99854.48
2023-03-22T09:20:16.626Z,99858.77
2023-03-22T09:21:21.256Z,99865.87
2023-03-22T09:22:28.184Z,99864.89
2023-03-22T09:23:32.156Z,99866.58
2023-03-22T09:24:36.905Z,99865.61
2023-03-22T09:25:45.039Z,99860.23
2023-03-22T09:26:48.416Z,99862.20
2023-03-22T09:27:52.848Z,99866.70
2023-03-22T09:28:56.097Z,99870.41
2023-03-22T09:29:59.531Z,99866.13
2023-03-22T09:31:04.411Z,99858.67
2023-03-22T09:32:07.094Z,99866.63
2023-03-22T09:33:11.940Z,99868.73
2023-03-22T09:34:16.222Z,99864.45
2023-03-22T09:35:18.874Z,99865.55
2023-03-22T09:36:27.011Z,99860.55
2023-03-22T09:37:29.930Z,99864.47
2023-03-22T09:38:35.673Z,99860.19
2023-03-22T09:39:40.263Z,99862.63
2023-03-22T09:40:55.004Z,99868.97
2023-03-22T09:42:00.600Z,99864.44
2023-03-22T09:43:07.430Z,99870.44
2023-03-22T09:44:29.101Z,99861.41
2023-03-22T09:45:36.516Z,99864.09
2023-03-22T09:46:43.230Z,99861.28
2023-03-22T09:47:48.759Z,99863.97
2023-03-22T09:48:52.316Z,99857.72
2023-03-22T09:49:58.788Z,99866.91
2023-03-22T09:51:02.095Z,99860.66
2023-03-22T09:52:07.981Z,99863.34
2023-03-22T09:53:13.288Z,99864.09
2023-03-22T09:54:27.156Z,99868.38
2023-03-22T09:55:43.671Z,99870.94
2023-03-22T09:56:53.282Z,99868.25
2023-03-22T09:59:26.644Z,99871.89
2023-03-22T10:00:50.271Z,99867.50
2023-03-22T10:01:59.408Z,99865.44
2023-03-22T10:03:35.662Z,99867.16
2023-03-22T10:04:57.683Z,99867.87
2023-03-22T10:06:10.192Z,99868.71
2023-03-22T10:07:17.174Z,99868.84
2023-03-22T10:08:29.313Z,99869.34
2023-03-22T10:09:35.394Z,99865.91
2023-03-22T10:10:41.170Z,99862.76
2023-03-22T10:11:55.222Z,99868.26
2023-03-22T10:13:07.638Z,99862.01
2023-03-22T10:14:26.293Z,99860.19
2023-03-22T10:16:48.288Z,99860.06
2023-03-22T10:17:54.142Z,99863.47
2023-03-22T10:19:04.431Z,99863.47
2023-03-22T10:20:11.024Z,99861.53
2023-03-22T10:21:15.827Z,99864.22
2023-03-22T10:22:21.775Z,99866.03
2023-03-22T10:23:32.138Z,99861.53
2023-03-22T10:24:36.917Z,99857.72
2023-03-22T10:25:42.025Z,99864.81
2023-03-22T10:26:47.344Z,99862.13
2023-03-22T10:27:50.694Z,99864.94
2023-03-22T10:29:03.995Z,99859.56
2023-03-22T10:30:22.644Z,99861.16
2023-03-22T10:31:26.525Z,99860.53
2023-03-22T10:32:32.156Z,99861.66
2023-03-22T10:33:44.573Z,99863.59
2023-03-22T10:34:48.859Z,99867.26
2023-03-22T10:35:53.336Z,99856.50
2023-03-22T10:36:56.002Z,99858.35
2023-03-22T10:38:01.044Z,99856.63
2023-03-22T10:39:15.117Z,99857.51
2023-03-22T10:40:20.822Z,99855.66
2023-03-22T10:41:24.763Z,99854.33
2023-03-22T10:42:29.513Z,99858.45
2023-03-22T10:43:34.515Z,99860.63
2023-03-22T10:44:52.499Z,99863.56
2023-03-22T10:45:55.561Z,99859.28
2023-03-22T10:46:59.225Z,99867.34
2023-03-22T10:49:31.701Z,99866.63
2023-03-22T10:51:49.941Z,99866.59
2023-03-22T10:54:12.005Z,99864.16
2023-03-22T10:55:15.407Z,99864.15
2023-03-22T10:56:20.682Z,99871.23
2023-03-22T10:57:26.564Z,99868.55
2023-03-22T10:58:35.193Z,99864.99
2023-03-22T10:59:50.528Z,99860.50
2023-03-22T11:00:56.236Z,99858.53
2023-03-22T11:02:00.758Z,99854.75
2023-03-22T11:03:05.501Z,99865.38
2023-03-22T11:04:14.314Z,99859.88
2023-03-22T11:05:23.639Z,99858.06
2023-03-22T11:06:31.639Z,99857.06
2023-03-22T11:07:36.014Z,99859.75
2023-03-22T11:10:10.454Z,99853.41
2023-03-22T11:11:25.451Z,99859.66
2023-03-22T11:12:27.949Z,99856.22
2023-03-22T11:13:30.963Z,99859.75
2023-03-22T11:14:39.146Z,99859.75
2023-03-22T11:17:14.132Z,99857.95
2023-03-22T11:18:17.650Z,99852.57
2023-03-22T11:19:28.642Z,99854.50
2023-03-22T11:20:36.253Z,99849.13
2023-03-22T11:21:38.752Z,99855.25
2023-03-22T11:22:43.477Z,99853.41
2023-03-22T11:23:50.031Z,99852.45
2023-03-22T11:24:52.915Z,99848.80
2023-03-22T12:01:37.930Z,99838.98
2023-03-22T12:02:51.574Z,99846.68
2023-03-22T12:03:56.291Z,99845.41
2023-03-22T12:06:24.590Z,99843.16
2023-03-22T12:07:29.696Z,99839.63
2023-03-22T12:13:21.691Z,99839.66
2023-03-22T12:14:34.743Z,99844.23
2023-03-22T12:15:40.698Z,99833.73
2023-03-22T12:16:48.833Z,99831.98
2023-03-22T12:17:56.215Z,99831.27
2023-03-22T12:19:06.433Z,99839.59
2023-03-22T12:20:35.434Z,99835.36
2023-03-22T12:21:38.735Z,99837.36
2023-03-22T12:22:42.801Z,99829.45
2023-03-22T12:23:45.282Z,99838.02
2023-03-22T12:24:47.888Z,99831.23
2023-03-22T12:27:22.754Z,99827.63
2023-03-22T12:29:45.066Z,99826.55
2023-03-22T12:30:52.237Z,99820.80
2023-03-22T12:32:10.539Z,99832.16
2023-03-22T12:34:43.443Z,99822.39
2023-03-22T12:35:47.119Z,99823.02
2023-03-22T12:36:56.228Z,99819.12
2023-03-22T12:38:01.182Z,99817.02
2023-03-22T12:39:04.565Z,99819.48
2023-03-22T12:40:26.996Z,99821.80
2023-03-22T12:41:38.478Z,99816.17
2023-03-22T12:42:59.053Z,99817.67
2023-03-22T12:44:05.108Z,99815.73
2023-03-22T12:45:15.586Z,99812.91
2023-03-22T12:47:48.906Z,99806.55
2023-03-22T12:49:14.905Z,99814.51
2023-03-22T12:50:29.256Z,99807.28
2023-03-22T12:51:31.657Z,99800.94
2023-03-22T12:52:50.928Z,99809.72
2023-03-22T12:53:56.176Z,99807.91
2023-03-22T12:55:01.078Z,99804.22
2023-03-22T12:56:03.720Z,99800.56
2023-03-22T12:57:06.495Z,99799.59
2023-03-22T12:58:09.893Z,99800.30
2023-03-22T12:59:17.928Z,99799.33
2023-03-22T13:00:24.459Z,99810.80
2023-03-22T13:01:46.655Z,99798.10
2023-03-22T13:02:55.751Z,99809.57
2023-03-22T13:03:59.081Z,99804.94
2023-03-22T13:05:04.848Z,99804.81
2023-03-22T13:06:31.119Z,99802.13
2023-03-22T13:07:40.498Z,99800.28
2023-03-22T13:09:04.350Z,99796.63
2023-03-22T13:10:35.538Z,99802.84
2023-03-22T13:13:16.704Z,99807.24
2023-03-22T13:16:03.985Z,99794.03
2023-03-22T13:17:07.955Z,99796.63
2023-03-22T13:19:44.292Z,99800.38
2023-03-22T13:20:46.768Z,99799.82
2023-03-22T13:21:49.391Z,99792.86
2023-03-22T13:22:55.925Z,99798.36
2023-03-22T13:24:09.336Z,99794.92
2023-03-22T13:25:20.151Z,99791.39
2023-03-22T13:26:32.836Z,99795.80
2023-03-22T13:29:21.375Z,99786.97
2023-03-22T13:30:36.987Z,99796.77
2023-03-22T13:31:44.836Z,99794.21
2023-03-22T13:34:07.276Z,99793.70
2023-03-22T13:35:23.957Z,99792.88
2023-03-22T13:36:28.398Z,99797.38
2023-03-22T13:37:39.983Z,99793.84
2023-03-22T13:38:43.955Z,99795.69
2023-03-22T13:39:51.216Z,99798.47
2023-03-22T13:42:21.206Z,99801.53
2023-03-22T13:43:43.310Z,99796.30
2023-03-22T13:44:57.375Z,99794.67
2023-03-22T13:47:32.928Z,99798.73
2023-03-22T13:48:50.118Z,99795.30
2023-03-22T13:49:55.045Z,99796.41
2023-03-22T13:50:58.007Z,99794.69
2023-03-22T13:52:01.720Z,99792.12
2023-03-22T13:53:07.629Z,99792.97
2023-03-22T13:54:16.614Z,99794.81
2023-03-22T13:55:46.193Z,99794.69
2023-03-22T13:58:52.952Z,99796.39
2023-03-22T14:00:13.582Z,99791.16
2023-03-22T14:02:45.049Z,99786.24
2023-03-22T14:03:49.789Z,99790.78
2023-03-22T14:04:56.848Z,99783.69
2023-03-22T14:06:25.017Z,99797.25
2023-03-22T14:07:46.440Z,99785.66
2023-03-22T14:08:51.926Z,99795.28
2023-03-22T14:10:16.132Z,99787.97
2023-03-22T14:11:22.618Z,99786.00
2023-03-22T14:13:53.780Z,99789.08
2023-03-22T14:14:58.442Z,99789.80
2023-03-22T14:17:34.295Z,99781.51
2023-03-22T14:18:37.933Z,99781.36
2023-03-22T14:19:40.877Z,99774.89
2023-03-22T14:20:43.692Z,99777.58
